Time;durP1;ratioP1;P1;durP2;ratioP2;P2;SDS_P1;SDS_P2;PMS_P1;PMS_P2;Temp;Humidity;BMP_temperature;BMP_pressure;BME280_temperature;BME280_humidity;BME280_pressure;Samples;Min_cycle;Max_cycle;Signal;HPM_P1;HPM_P2
2022/10/23 00:01:22;;;;;;;11.18;6.53;;;;;;;;;;4994543;28;20048;-77
2022/10/23 00:03:51;;;;;;;20.17;7.20;;;;;;;;;;4994527;28;20041;-77
2022/10/23 00:06:18;;;;;;;15.82;7.50;;;;;;;;;;5004260;28;20037;-77
2022/10/23 00:08:45;;;;;;;14.52;7.57;;;;;;;;;;5008598;28;20028;-77
2022/10/23 00:11:13;;;;;;;18.35;7.90;;;;;;;;;;5001734;28;20137;-77
2022/10/23 00:13:39;;;;;;;19.38;7.47;;;;;;;;;;5008610;28;20044;-77
2022/10/23 00:16:06;;;;;;;16.20;7.60;;;;;;;;;;5012245;28;20030;-77
2022/10/23 00:18:32;;;;;;;19.00;8.25;;;;;;;;;;5012551;28;20465;-77
2022/10/23 00:20:58;;;;;;;17.08;7.65;;;;;;;;;;5012552;28;20030;-77
2022/10/23 00:23:24;;;;;;;16.58;7.32;;;;;;;;;;5012550;28;20022;-77
2022/10/23 00:25:50;;;;;;;16.63;7.93;;;;;;;;;;4994015;28;20041;-77
2022/10/23 00:28:16;;;;;;;17.13;7.95;;;;;;;;;;4994338;28;20037;-77
2022/10/23 00:30:42;;;;;;;17.10;7.43;;;;;;;;;;5010474;28;20065;-77
2022/10/23 00:33:09;;;;;;;13.07;6.82;;;;;;;;;;5011848;28;20028;-77
2022/10/23 00:35:38;;;;;;;15.38;6.68;;;;;;;;;;5011903;28;20026;-77
2022/10/23 00:38:04;;;;;;;14.52;6.50;;;;;;;;;;5012029;28;20148;-77
2022/10/23 00:40:30;;;;;;;12.55;6.57;;;;;;;;;;5011892;28;20041;-77
2022/10/23 00:42:56;;;;;;;22.00;7.38;;;;;;;;;;4992823;28;20089;-77
2022/10/23 00:45:25;;;;;;;19.20;7.88;;;;;;;;;;4991823;28;20038;-77
2022/10/23 00:47:51;;;;;;;13.88;7.05;;;;;;;;;;4992204;28;20052;-77
2022/10/23 00:50:18;;;;;;;18.27;7.05;;;;;;;;;;4974819;28;20081;-77
2022/10/23 00:52:48;;;;;;;15.30;6.93;;;;;;;;;;4992531;28;20026;-77
2022/10/23 00:55:15;;;;;;;20.88;7.30;;;;;;;;;;5006101;28;20026;-77
2022/10/23 00:57:42;;;;;;;15.32;6.70;;;;;;;;;;5011656;28;20022;-77
2022/10/23 01:00:11;;;;;;;19.08;7.40;;;;;;;;;;4993755;28;20025;-77
2022/10/23 01:02:37;;;;;;;13.85;7.57;;;;;;;;;;5012218;28;20115;-77
2022/10/23 01:05:03;;;;;;;14.63;6.90;;;;;;;;;;5011670;28;20065;-77
2022/10/23 01:07:35;;;;;;;15.85;6.47;;;;;;;;;;4993904;28;20080;-77
2022/10/23 01:10:07;;;;;;;14.32;6.47;;;;;;;;;;5010343;28;20022;-77
2022/10/23 01:12:33;;;;;;;19.95;7.53;;;;;;;;;;5009974;28;20022;-77
2022/10/23 01:14:59;;;;;;;15.68;7.32;;;;;;;;;;5014491;28;20029;-77
2022/10/23 01:17:36;;;;;;;15.90;6.30;;;;;;;;;;5015592;28;20456;-77
2022/10/23 01:20:09;;;;;;;18.27;7.07;;;;;;;;;;5015566;28;20030;-77
2022/10/23 01:22:54;;;;;;;15.30;6.60;;;;;;;;;;4997948;28;20121;-77
2022/10/23 01:25:41;;;;;;;15.60;6.55;;;;;;;;;;5015517;28;20117;-77
2022/10/23 01:28:10;;;;;;;18.58;6.03;;;;;;;;;;5015458;28;20026;-77
2022/10/23 01:30:40;;;;;;;13.98;6.43;;;;;;;;;;5015620;28;20058;-77
2022/10/23 01:33:08;;;;;;;14.82;5.80;;;;;;;;;;5015207;28;20105;-77
2022/10/23 01:35:37;;;;;;;14.27;7.10;;;;;;;;;;5015617;28;20109;-77
2022/10/23 01:38:05;;;;;;;16.45;5.90;;;;;;;;;;5015268;28;20057;-77
2022/10/23 01:40:38;;;;;;;12.93;6.20;;;;;;;;;;5015583;28;20071;-77
2022/10/23 01:43:05;;;;;;;14.15;6.60;;;;;;;;;;4995926;28;20030;-77
2022/10/23 01:45:31;;;;;;;15.63;6.22;;;;;;;;;;4995563;28;20027;-77
2022/10/23 01:47:57;;;;;;;15.65;5.90;;;;;;;;;;4977879;28;20038;-77
2022/10/23 01:50:24;;;;;;;14.93;6.82;;;;;;;;;;4995932;28;20031;-77
2022/10/23 01:52:50;;;;;;;17.63;6.97;;;;;;;;;;4995531;28;20018;-77
2022/10/23 01:55:17;;;;;;;13.75;5.85;;;;;;;;;;5009603;28;20465;-77
2022/10/23 01:57:44;;;;;;;18.33;6.60;;;;;;;;;;5014976;28;20567;-77
2022/10/23 02:00:14;;;;;;;10.57;5.43;;;;;;;;;;5015232;28;20037;-77
2022/10/23 02:02:41;;;;;;;13.50;5.88;;;;;;;;;;5015296;28;20120;-77
2022/10/23 02:05:07;;;;;;;12.80;6.35;;;;;;;;;;5009909;28;20385;-77
2022/10/23 02:07:34;;;;;;;15.30;5.95;;;;;;;;;;5003614;28;20046;-77
2022/10/23 02:10:00;;;;;;;17.60;7.20;;;;;;;;;;4995322;28;20534;-77
2022/10/23 02:13:02;;;;;;;23.80;5.80;;;;;;;;;;4996488;28;20377;-77
2022/10/23 02:15:39;;;;;;;15.75;6.30;;;;;;;;;;4935154;29;20104;-77
2022/10/23 02:18:23;;;;;;;15.43;5.85;;;;;;;;;;4985980;28;20137;-77
2022/10/23 02:20:55;;;;;;;11.60;5.63;;;;;;;;;;4995125;28;20024;-77
2022/10/23 02:23:33;;;;;;;12.18;5.38;;;;;;;;;;4994945;28;20037;-77
2022/10/23 02:26:15;;;;;;;16.58;6.43;;;;;;;;;;4994964;28;20022;-77
2022/10/23 02:28:49;;;;;;;15.95;5.85;;;;;;;;;;4994748;28;20030;-77
2022/10/23 02:31:16;;;;;;;14.82;6.00;;;;;;;;;;4994938;28;20049;-77
2022/10/23 02:33:44;;;;;;;10.77;6.28;;;;;;;;;;4994794;28;20026;-77
2022/10/23 02:36:10;;;;;;;16.83;5.80;;;;;;;;;;4994641;28;20461;-77
2022/10/23 02:38:40;;;;;;;11.38;6.05;;;;;;;;;;4994580;28;20031;-77
2022/10/23 02:41:14;;;;;;;15.88;6.15;;;;;;;;;;4999022;28;20096;-77
2022/10/23 02:43:50;;;;;;;21.33;6.53;;;;;;;;;;5014234;28;20021;-77
2022/10/23 02:46:16;;;;;;;16.38;6.45;;;;;;;;;;5013997;28;20053;-77
2022/10/23 02:48:47;;;;;;;19.52;6.47;;;;;;;;;;4996543;28;20147;-78
2022/10/23 02:51:40;;;;;;;15.88;6.57;;;;;;;;;;5014473;28;20053;-77
2022/10/23 02:54:11;;;;;;;18.83;6.57;;;;;;;;;;5008223;28;20034;-77
2022/10/23 02:56:44;;;;;;;20.15;7.47;;;;;;;;;;5013788;28;20064;-77
2022/10/23 02:59:10;;;;;;;18.85;6.45;;;;;;;;;;5014035;28;20033;-77
2022/10/23 03:01:40;;;;;;;16.63;7.03;;;;;;;;;;4994645;28;20057;-77
2022/10/23 03:04:08;;;;;;;13.90;6.22;;;;;;;;;;4993751;28;20030;-77
2022/10/23 03:06:34;;;;;;;16.00;5.68;;;;;;;;;;4976673;28;20033;-77
2022/10/23 03:09:03;;;;;;;18.15;6.50;;;;;;;;;;4994135;28;20022;-77
2022/10/23 03:11:29;;;;;;;20.55;6.22;;;;;;;;;;4988665;28;20034;-77
2022/10/23 03:13:55;;;;;;;19.67;7.50;;;;;;;;;;5013532;28;20044;-77
2022/10/23 03:16:21;;;;;;;23.92;9.10;;;;;;;;;;5008784;28;20433;-77
2022/10/23 03:18:47;;;;;;;14.88;6.55;;;;;;;;;;4994053;28;20026;-77
2022/10/23 03:21:13;;;;;;;12.25;6.45;;;;;;;;;;4992670;28;20385;-77
2022/10/23 03:23:39;;;;;;;21.77;6.35;;;;;;;;;;4993562;28;20365;-77
2022/10/23 03:26:05;;;;;;;19.15;6.35;;;;;;;;;;4995942;28;20037;-77
2022/10/23 03:28:31;;;;;;;19.95;7.05;;;;;;;;;;5013271;28;20014;-77
2022/10/23 03:31:01;;;;;;;18.08;6.60;;;;;;;;;;5013561;28;20106;-77
2022/10/23 03:33:27;;;;;;;12.80;6.75;;;;;;;;;;5012372;28;20112;-77
2022/10/23 03:35:53;;;;;;;12.27;6.72;;;;;;;;;;5013824;28;20068;-77
2022/10/23 03:38:19;;;;;;;15.05;6.47;;;;;;;;;;5013076;28;20092;-77
2022/10/23 03:40:45;;;;;;;15.27;6.35;;;;;;;;;;5011877;28;20042;-77
2022/10/23 03:43:11;;;;;;;15.23;6.13;;;;;;;;;;4993418;28;20053;-77
2022/10/23 03:45:37;;;;;;;21.85;8.13;;;;;;;;;;4993121;28;20041;-77
2022/10/23 03:48:04;;;;;;;21.42;7.40;;;;;;;;;;4993672;28;20520;-77
2022/10/23 03:50:30;;;;;;;19.52;7.55;;;;;;;;;;4976082;28;20433;-77
2022/10/23 03:52:56;;;;;;;23.83;7.97;;;;;;;;;;4976328;28;20027;-78
2022/10/23 03:55:22;;;;;;;16.80;7.30;;;;;;;;;;5008285;28;20022;-77
2022/10/23 03:57:48;;;;;;;25.27;7.88;;;;;;;;;;4995247;28;20034;-77
2022/10/23 04:00:14;;;;;;;17.23;7.85;;;;;;;;;;5012976;28;20041;-78
2022/10/23 04:02:40;;;;;;;16.17;7.20;;;;;;;;;;5012919;28;20068;-78
2022/10/23 04:05:06;;;;;;;17.27;7.63;;;;;;;;;;5012476;28;20029;-78
2022/10/23 04:07:32;;;;;;;17.20;7.53;;;;;;;;;;4995288;28;20472;-77
2022/10/23 04:09:58;;;;;;;22.45;8.35;;;;;;;;;;5009828;28;20115;-77
2022/10/23 04:12:24;;;;;;;21.85;8.23;;;;;;;;;;5011357;28;20026;-77
2022/10/23 04:14:50;;;;;;;23.80;9.18;;;;;;;;;;4994573;28;20105;-77
2022/10/23 04:17:16;;;;;;;17.92;7.40;;;;;;;;;;5012565;28;20041;-77
2022/10/23 04:19:42;;;;;;;23.88;8.43;;;;;;;;;;5012565;28;20503;-78
2022/10/23 04:22:08;;;;;;;18.08;8.10;;;;;;;;;;5012655;28;20034;-78
2022/10/23 04:24:35;;;;;;;16.20;7.43;;;;;;;;;;5012522;28;20471;-77
2022/10/23 04:27:01;;;;;;;15.32;7.63;;;;;;;;;;5012535;28;20022;-78
2022/10/23 04:29:30;;;;;;;19.10;7.63;;;;;;;;;;5000025;28;20033;-78
2022/10/23 04:31:56;;;;;;;15.88;7.47;;;;;;;;;;4992726;28;20032;-78
2022/10/23 04:34:22;;;;;;;18.95;7.82;;;;;;;;;;4992835;28;20038;-77
2022/10/23 04:36:48;;;;;;;18.17;6.88;;;;;;;;;;4975436;28;20457;-77
2022/10/23 04:39:14;;;;;;;23.95;7.95;;;;;;;;;;4992573;28;20105;-78
2022/10/23 04:41:40;;;;;;;13.82;7.63;;;;;;;;;;4983921;28;20435;-77
2022/10/23 04:44:06;;;;;;;20.27;7.82;;;;;;;;;;4994821;28;20069;-77
2022/10/23 04:46:32;;;;;;;16.73;7.57;;;;;;;;;;5010612;28;20042;-78
2022/10/23 04:48:58;;;;;;;12.93;6.85;;;;;;;;;;5011252;28;20025;-77
2022/10/23 04:51:24;;;;;;;18.58;6.50;;;;;;;;;;5011976;28;20049;-78
2022/10/23 04:53:50;;;;;;;13.40;7.03;;;;;;;;;;5011964;28;20026;-77
2022/10/23 04:56:17;;;;;;;16.58;6.97;;;;;;;;;;5012215;28;20026;-77
2022/10/23 04:58:43;;;;;;;16.20;6.20;;;;;;;;;;4994570;28;20080;-77
2022/10/23 05:01:09;;;;;;;19.80;6.65;;;;;;;;;;4994194;28;20060;-77
2022/10/23 05:03:36;;;;;;;19.52;6.82;;;;;;;;;;5011946;28;20408;-77
2022/10/23 05:06:02;;;;;;;21.65;7.72;;;;;;;;;;4998661;28;20053;-78
2022/10/23 05:08:28;;;;;;;25.00;7.53;;;;;;;;;;4992148;28;20026;-77
2022/10/23 05:10:54;;;;;;;17.75;7.75;;;;;;;;;;4984054;28;20037;-77
2022/10/23 05:13:20;;;;;;;16.00;7.25;;;;;;;;;;4993932;28;20026;-77
2022/10/23 05:15:47;;;;;;;22.33;7.55;;;;;;;;;;5011622;28;20036;-77
2022/10/23 05:18:16;;;;;;;21.08;7.30;;;;;;;;;;5011908;28;20056;-77
2022/10/23 05:20:42;;;;;;;18.48;7.43;;;;;;;;;;5011645;28;20026;-77
2022/10/23 05:23:10;;;;;;;17.50;7.32;;;;;;;;;;5011955;28;20030;-78
2022/10/23 05:25:36;;;;;;;22.02;7.50;;;;;;;;;;5011865;28;20033;-77
2022/10/23 05:28:02;;;;;;;17.17;6.88;;;;;;;;;;4992782;28;20380;-77
2022/10/23 05:30:28;;;;;;;15.63;6.70;;;;;;;;;;4990782;28;20069;-77
2022/10/23 05:32:54;;;;;;;21.83;7.30;;;;;;;;;;4992171;28;20035;-78
2022/10/23 05:35:22;;;;;;;17.30;7.15;;;;;;;;;;4974791;28;20424;-77
2022/10/23 05:37:50;;;;;;;17.77;6.85;;;;;;;;;;4990925;28;20034;-78
2022/10/23 05:40:16;;;;;;;21.08;7.00;;;;;;;;;;4990732;28;20081;-77
2022/10/23 05:42:42;;;;;;;14.95;7.32;;;;;;;;;;4992298;28;20022;-77
2022/10/23 05:45:09;;;;;;;13.90;6.60;;;;;;;;;;4992002;28;20117;-77
2022/10/23 05:47:35;;;;;;;19.77;6.38;;;;;;;;;;4974324;28;20133;-77
2022/10/23 05:50:01;;;;;;;19.30;7.80;;;;;;;;;;4974815;28;20026;-77
2022/10/23 05:52:27;;;;;;;23.00;7.78;;;;;;;;;;4991951;28;20035;-78
2022/10/23 05:54:53;;;;;;;24.02;7.72;;;;;;;;;;5002528;28;20651;-77
2022/10/23 05:57:19;;;;;;;13.98;6.50;;;;;;;;;;5011371;28;20465;-77
2022/10/23 05:59:45;;;;;;;13.80;6.50;;;;;;;;;;5011922;28;20034;-77
2022/10/23 06:02:11;;;;;;;24.00;6.95;;;;;;;;;;5014941;28;20034;-77
2022/10/23 06:04:37;;;;;;;12.15;6.32;;;;;;;;;;5013069;28;20132;-77
2022/10/23 06:07:04;;;;;;;16.48;6.68;;;;;;;;;;4993930;28;20384;-77
2022/10/23 06:09:30;;;;;;;15.13;7.55;;;;;;;;;;5003964;28;20413;-77
2022/10/23 06:11:56;;;;;;;16.27;6.30;;;;;;;;;;5001778;28;20034;-77
2022/10/23 06:14:22;;;;;;;15.93;7.32;;;;;;;;;;5014704;28;20030;-78
2022/10/23 06:16:48;;;;;;;16.73;7.07;;;;;;;;;;5002483;28;20034;-77
2022/10/23 06:19:14;;;;;;;14.65;7.00;;;;;;;;;;5014709;28;20034;-77
2022/10/23 06:21:40;;;;;;;14.88;6.75;;;;;;;;;;5014779;28;20034;-77
2022/10/23 06:24:07;;;;;;;14.60;7.18;;;;;;;;;;5014570;28;20021;-77
2022/10/23 06:26:33;;;;;;;11.35;6.22;;;;;;;;;;5014696;28;20037;-77
2022/10/23 06:28:59;;;;;;;14.55;7.68;;;;;;;;;;5005437;28;20477;-77
2022/10/23 06:31:27;;;;;;;14.50;6.38;;;;;;;;;;4995031;28;20041;-77
2022/10/23 06:33:54;;;;;;;17.10;7.20;;;;;;;;;;5010932;28;20058;-77
2022/10/23 06:36:20;;;;;;;16.75;6.70;;;;;;;;;;5014517;28;20026;-77
2022/10/23 06:38:48;;;;;;;16.27;7.07;;;;;;;;;;5014714;28;20029;-77
2022/10/23 06:41:15;;;;;;;18.60;6.78;;;;;;;;;;5014260;28;20497;-77
2022/10/23 06:43:42;;;;;;;17.75;6.60;;;;;;;;;;4996616;28;20030;-77
2022/10/23 06:46:08;;;;;;;12.95;6.40;;;;;;;;;;5014057;28;20054;-77
2022/10/23 06:48:34;;;;;;;16.77;7.43;;;;;;;;;;5014398;28;20014;-77
2022/10/23 06:51:04;;;;;;;17.17;6.60;;;;;;;;;;5014483;28;20032;-77
2022/10/23 06:53:30;;;;;;;14.57;6.65;;;;;;;;;;5014000;28;20030;-77
2022/10/23 06:56:00;;;;;;;17.30;6.28;;;;;;;;;;5013632;28;20030;-77
2022/10/23 06:58:26;;;;;;;19.92;6.50;;;;;;;;;;5014344;28;20084;-77
2022/10/23 07:00:52;;;;;;;13.25;6.05;;;;;;;;;;4998544;28;20039;-77
2022/10/23 07:03:18;;;;;;;14.98;6.55;;;;;;;;;;4981093;28;20033;-77
2022/10/23 07:05:46;;;;;;;13.80;5.97;;;;;;;;;;5000111;28;20034;-77
2022/10/23 07:08:12;;;;;;;11.75;5.85;;;;;;;;;;5005576;28;20167;-77
2022/10/23 07:10:41;;;;;;;15.50;6.10;;;;;;;;;;4998526;28;20129;-77
2022/10/23 07:13:08;;;;;;;15.30;5.35;;;;;;;;;;5000500;28;20088;-77
2022/10/23 07:15:34;;;;;;;16.55;6.40;;;;;;;;;;4993235;28;20030;-77
2022/10/23 07:18:00;;;;;;;12.63;5.38;;;;;;;;;;4987635;28;20640;-77
2022/10/23 07:20:26;;;;;;;12.25;6.18;;;;;;;;;;5006673;28;20026;-77
2022/10/23 07:22:53;;;;;;;17.83;5.70;;;;;;;;;;5013896;28;20025;-78
2022/10/23 07:25:20;;;;;;;13.90;5.60;;;;;;;;;;4997473;28;20030;-78
2022/10/23 07:27:46;;;;;;;13.63;5.35;;;;;;;;;;5004548;28;20042;-78
2022/10/23 07:30:12;;;;;;;11.52;5.40;;;;;;;;;;4995565;28;20034;-78
2022/10/23 07:32:38;;;;;;;15.98;5.70;;;;;;;;;;5003563;28;20061;-78
2022/10/23 07:35:05;;;;;;;16.25;5.63;;;;;;;;;;5001957;28;20026;-78
2022/10/23 07:37:31;;;;;;;11.68;5.00;;;;;;;;;;5002332;28;20026;-77
2022/10/23 07:39:57;;;;;;;11.52;5.20;;;;;;;;;;5004176;28;20457;-78
2022/10/23 07:42:23;;;;;;;11.48;5.10;;;;;;;;;;4993392;28;20438;-78
2022/10/23 07:44:49;;;;;;;15.73;5.43;;;;;;;;;;5002317;28;20054;-78
2022/10/23 07:47:15;;;;;;;20.10;5.65;;;;;;;;;;5001112;28;20069;-78
2022/10/23 07:49:41;;;;;;;11.50;4.90;;;;;;;;;;5001517;28;20018;-78
2022/10/23 07:52:07;;;;;;;9.43;4.70;;;;;;;;;;5001344;28;20018;-78
2022/10/23 07:54:33;;;;;;;11.65;4.78;;;;;;;;;;5008560;28;20014;-78
2022/10/23 07:57:00;;;;;;;15.15;4.63;;;;;;;;;;4999271;28;20140;-78
2022/10/23 07:59:26;;;;;;;11.07;4.68;;;;;;;;;;5007500;28;20084;-78
2022/10/23 08:01:55;;;;;;;12.32;4.78;;;;;;;;;;5002081;28;20088;-78
2022/10/23 08:04:21;;;;;;;10.57;4.50;;;;;;;;;;5007181;28;20038;-78
2022/10/23 08:06:47;;;;;;;11.40;4.72;;;;;;;;;;5008999;28;20014;-77
2022/10/23 08:09:13;;;;;;;11.57;4.68;;;;;;;;;;4993541;28;20029;-77
2022/10/23 08:11:39;;;;;;;16.30;5.00;;;;;;;;;;4999778;28;20505;-78
2022/10/23 08:14:07;;;;;;;13.35;4.72;;;;;;;;;;5003077;28;20030;-78
2022/10/23 08:16:34;;;;;;;9.93;4.32;;;;;;;;;;5000644;28;20125;-78
2022/10/23 08:19:00;;;;;;;10.18;4.32;;;;;;;;;;4988650;28;20477;-77
2022/10/23 08:21:26;;;;;;;15.70;4.10;;;;;;;;;;5002493;28;20327;-77
2022/10/23 08:23:57;;;;;;;10.95;3.92;;;;;;;;;;4986316;28;20401;-78
2022/10/23 08:26:24;;;;;;;12.88;4.65;;;;;;;;;;4987169;28;20093;-78
2022/10/23 08:28:50;;;;;;;7.47;3.80;;;;;;;;;;5005020;28;20041;-77
2022/10/23 08:31:18;;;;;;;6.93;3.42;;;;;;;;;;5002930;28;20447;-77
2022/10/23 08:33:44;;;;;;;11.02;3.70;;;;;;;;;;5008541;28;20028;-77
2022/10/23 08:36:20;;;;;;;14.52;4.65;;;;;;;;;;4996870;28;20018;-78
2022/10/23 08:38:47;;;;;;;11.80;4.10;;;;;;;;;;5006914;28;20014;-78
2022/10/23 08:41:17;;;;;;;10.38;3.67;;;;;;;;;;5000789;28;20049;-78
2022/10/23 08:43:47;;;;;;;17.42;4.00;;;;;;;;;;5001002;28;20678;-77
2022/10/23 08:46:16;;;;;;;9.52;3.60;;;;;;;;;;4997684;28;20125;-78
2022/10/23 08:48:42;;;;;;;11.18;3.42;;;;;;;;;;4992763;28;20038;-78
2022/10/23 08:51:15;;;;;;;12.27;3.60;;;;;;;;;;4990164;28;20473;-77
2022/10/23 08:53:57;;;;;;;8.75;3.47;;;;;;;;;;4997585;28;20038;-77
2022/10/23 08:56:28;;;;;;;11.27;4.60;;;;;;;;;;4998448;28;20041;-77
2022/10/23 08:58:54;;;;;;;12.60;3.67;;;;;;;;;;5006893;28;20034;-77
2022/10/23 09:01:23;;;;;;;11.52;3.33;;;;;;;;;;4996054;28;20035;-77
2022/10/23 09:03:49;;;;;;;11.65;4.20;;;;;;;;;;4980391;28;20035;-78
2022/10/23 09:06:33;;;;;;;7.55;3.28;;;;;;;;;;5001526;28;20105;-77
2022/10/23 09:09:07;;;;;;;7.72;3.13;;;;;;;;;;5005622;28;20022;-78
2022/10/23 09:11:46;;;;;;;8.68;3.20;;;;;;;;;;5009797;28;20563;-78
2022/10/23 09:14:39;;;;;;;10.45;3.25;;;;;;;;;;4993390;28;20404;-78
2022/10/23 09:17:11;;;;;;;8.63;2.90;;;;;;;;;;5011536;28;20092;-78
2022/10/23 09:19:37;;;;;;;9.07;3.10;;;;;;;;;;5005041;28;20010;-78
2022/10/23 09:22:05;;;;;;;7.50;2.85;;;;;;;;;;4991462;28;20077;-77
2022/10/23 09:24:32;;;;;;;8.20;3.28;;;;;;;;;;4996609;28;20444;-77
2022/10/23 09:26:59;;;;;;;9.05;2.63;;;;;;;;;;5011206;28;20022;-78
2022/10/23 09:29:31;;;;;;;11.38;3.13;;;;;;;;;;5011489;28;20022;-77
2022/10/23 09:31:58;;;;;;;12.35;3.15;;;;;;;;;;4991790;28;20038;-77
2022/10/23 09:34:26;;;;;;;11.95;2.95;;;;;;;;;;5011297;28;20509;-77
2022/10/23 09:36:54;;;;;;;11.13;3.15;;;;;;;;;;5015564;28;20026;-77
2022/10/23 09:39:26;;;;;;;11.70;2.70;;;;;;;;;;5015228;28;20069;-77
2022/10/23 09:41:52;;;;;;;7.88;2.67;;;;;;;;;;5015261;28;20022;-78
2022/10/23 09:44:22;;;;;;;8.18;2.70;;;;;;;;;;5015666;28;20630;-78
2022/10/23 09:46:48;;;;;;;5.70;2.95;;;;;;;;;;5015124;28;20042;-78
2022/10/23 09:49:18;;;;;;;8.32;2.50;;;;;;;;;;5015404;28;20083;-78
2022/10/23 09:51:53;;;;;;;7.68;2.90;;;;;;;;;;5015230;28;20428;-77
2022/10/23 09:54:22;;;;;;;7.95;2.65;;;;;;;;;;5014883;28;20010;-77
2022/10/23 09:56:49;;;;;;;6.53;2.50;;;;;;;;;;5006478;28;20023;-78
2022/10/23 09:59:15;;;;;;;10.95;2.90;;;;;;;;;;5010723;28;20026;-78
2022/10/23 10:01:51;;;;;;;5.60;2.35;;;;;;;;;;5015660;28;20505;-78
2022/10/23 10:04:17;;;;;;;9.90;2.70;;;;;;;;;;5015302;28;20076;-78
2022/10/23 10:06:43;;;;;;;13.27;2.58;;;;;;;;;;4995711;28;20014;-78
2022/10/23 10:09:14;;;;;;;12.85;2.38;;;;;;;;;;5005804;28;20475;-78
2022/10/23 10:11:51;;;;;;;8.85;2.50;;;;;;;;;;5004692;28;20109;-78
2022/10/23 10:14:36;;;;;;;6.95;2.40;;;;;;;;;;5006179;28;20022;-78
2022/10/23 10:17:04;;;;;;;6.75;2.30;;;;;;;;;;5009199;28;20373;-77
2022/10/23 10:19:36;;;;;;;6.82;2.40;;;;;;;;;;5014373;28;20039;-77
2022/10/23 10:22:03;;;;;;;11.38;2.58;;;;;;;;;;4987188;28;20050;-77
2022/10/23 10:24:38;;;;;;;7.82;2.40;;;;;;;;;;4998315;28;20038;-77
2022/10/23 10:27:07;;;;;;;7.68;2.17;;;;;;;;;;5007920;28;20414;-77
2022/10/23 10:29:39;;;;;;;9.30;3.40;;;;;;;;;;4997249;28;20358;-77
2022/10/23 10:32:16;;;;;;;10.40;2.88;;;;;;;;;;4999825;28;20031;-77
2022/10/23 10:34:55;;;;;;;6.75;2.30;;;;;;;;;;5010941;28;20023;-77
2022/10/23 10:37:29;;;;;;;7.70;2.30;;;;;;;;;;5005379;28;20018;-77
2022/10/23 10:40:13;;;;;;;7.57;2.63;;;;;;;;;;5005242;28;20018;-78
2022/10/23 10:42:39;;;;;;;7.40;2.22;;;;;;;;;;4980163;28;20035;-78
2022/10/23 10:45:05;;;;;;;6.47;2.15;;;;;;;;;;4992731;28;20033;-79
2022/10/23 10:47:31;;;;;;;6.20;2.13;;;;;;;;;;5012326;28;20061;-74
2022/10/23 10:50:03;;;;;;;13.18;2.45;;;;;;;;;;4995530;28;20457;-75
2022/10/23 10:52:39;;;;;;;11.98;2.47;;;;;;;;;;5013299;28;20306;-75
2022/10/23 10:55:11;;;;;;;7.57;2.45;;;;;;;;;;5013460;28;20030;-75
2022/10/23 10:57:49;;;;;;;10.98;2.50;;;;;;;;;;5013860;28;20356;-76
2022/10/23 11:00:20;;;;;;;5.57;2.60;;;;;;;;;;4996137;28;20354;-77
2022/10/23 11:02:52;;;;;;;5.65;2.20;;;;;;;;;;5013665;28;20445;-77
2022/10/23 11:05:22;;;;;;;6.72;1.90;;;;;;;;;;5005271;28;20652;-77
2022/10/23 11:08:03;;;;;;;6.57;2.03;;;;;;;;;;4994115;28;20041;-77
2022/10/23 11:10:30;;;;;;;10.70;2.40;;;;;;;;;;4994482;28;20055;-76
2022/10/23 11:12:56;;;;;;;5.18;2.40;;;;;;;;;;4988326;28;20261;-77
2022/10/23 11:15:28;;;;;;;9.70;2.30;;;;;;;;;;4995695;28;20033;-76
2022/10/23 11:17:58;;;;;;;5.57;1.92;;;;;;;;;;4995836;28;20109;-76
2022/10/23 11:20:42;;;;;;;4.60;2.20;;;;;;;;;;5013326;28;20022;-76
2022/10/23 11:23:08;;;;;;;6.45;2.05;;;;;;;;;;5013278;28;20113;-76
2022/10/23 11:25:43;;;;;;;6.03;2.30;;;;;;;;;;5012078;28;20038;-76
2022/10/23 11:28:21;;;;;;;6.88;2.13;;;;;;;;;;4999890;28;20403;-76
2022/10/23 11:30:59;;;;;;;5.82;2.00;;;;;;;;;;5007482;28;20041;-76
2022/10/23 11:33:25;;;;;;;7.28;2.10;;;;;;;;;;4993901;28;20030;-76
2022/10/23 11:35:51;;;;;;;7.97;2.10;;;;;;;;;;4993334;28;20026;-76
2022/10/23 11:38:28;;;;;;;11.25;2.38;;;;;;;;;;4992139;28;20033;-76
2022/10/23 11:40:56;;;;;;;3.78;2.15;;;;;;;;;;4996492;28;20129;-76
2022/10/23 11:43:45;;;;;;;6.40;2.00;;;;;;;;;;5023790;28;20101;-76
2022/10/23 11:46:26;;;;;;;6.55;2.25;;;;;;;;;;5006785;28;20049;-76
2022/10/23 11:48:54;;;;;;;11.85;1.98;;;;;;;;;;5012609;28;20028;-76
2022/10/23 11:51:26;;;;;;;5.22;1.83;;;;;;;;;;4994782;28;20052;-77
2022/10/23 11:53:52;;;;;;;;;;;;;;;;;;5013005;28;20022;-76
2022/10/23 11:56:18;;;;;;;5.65;1.85;;;;;;;;;;5012697;28;19905;-76
2022/10/23 11:58:44;;;;;;;6.32;1.92;;;;;;;;;;5009331;28;20025;-77
2022/10/23 12:01:28;;;;;;;6.07;2.67;;;;;;;;;;4998871;28;20062;-77
2022/10/23 12:03:54;;;;;;;5.78;1.90;;;;;;;;;;4993053;28;20022;-76
2022/10/23 12:06:22;;;;;;;9.07;2.25;;;;;;;;;;4999898;28;20025;-77
2022/10/23 12:08:53;;;;;;;4.85;1.90;;;;;;;;;;4980310;28;20129;-76
2022/10/23 12:11:26;;;;;;;5.47;1.85;;;;;;;;;;4998073;28;20105;-76
2022/10/23 12:13:52;;;;;;;5.68;1.80;;;;;;;;;;4997084;28;20033;-77
2022/10/23 12:16:18;;;;;;;5.50;1.80;;;;;;;;;;5002933;28;20026;-76
2022/10/23 12:18:54;;;;;;;6.03;1.92;;;;;;;;;;4996020;28;20076;-77
2022/10/23 12:21:27;;;;;;;5.03;2.05;;;;;;;;;;5000227;28;20022;-76
2022/10/23 12:24:08;;;;;;;8.00;1.90;;;;;;;;;;5004671;28;20105;-77
2022/10/23 12:26:34;;;;;;;6.47;1.80;;;;;;;;;;5010658;28;20025;-76
2022/10/23 12:29:15;;;;;;;7.53;2.10;;;;;;;;;;5011423;28;20033;-77
2022/10/23 12:31:55;;;;;;;10.13;2.00;;;;;;;;;;5010115;28;20426;-76
2022/10/23 12:34:21;;;;;;;5.57;1.90;;;;;;;;;;5011873;28;20018;-77
2022/10/23 12:37:06;;;;;;;3.20;1.80;;;;;;;;;;5011587;28;20068;-76
2022/10/23 12:39:39;;;;;;;4.00;2.10;;;;;;;;;;5008731;28;20017;-76
2022/10/23 12:42:04;;;;;;;;;;;;;;;;;;5012058;28;20534;-77
2022/10/23 12:44:31;;;;;;;13.68;2.10;;;;;;;;;;4993711;28;20004;-77
2022/10/23 12:46:58;;;;;;;4.95;1.95;;;;;;;;;;4992933;28;20050;-78
2022/10/23 12:49:26;;;;;;;6.80;3.10;;;;;;;;;;5013559;28;20067;-75
2022/10/23 12:51:59;;;;;;;6.38;2.40;;;;;;;;;;5013139;28;20028;-75
2022/10/23 12:54:26;;;;;;;5.82;2.10;;;;;;;;;;5031323;28;20115;-76
2022/10/23 12:56:52;;;;;;;6.20;1.70;;;;;;;;;;5031328;28;20022;-76
2022/10/23 12:59:21;;;;;;;6.38;1.80;;;;;;;;;;5031174;28;20029;-76
2022/10/23 13:01:47;;;;;;;16.27;3.53;;;;;;;;;;5031364;28;20750;-76
2022/10/23 13:04:16;;;;;;;7.72;2.95;;;;;;;;;;5031129;28;20049;-76
2022/10/23 13:06:44;;;;;;;10.55;2.60;;;;;;;;;;5009587;28;20105;-75
2022/10/23 13:09:29;;;;;;;11.10;2.50;;;;;;;;;;5009147;28;20022;-75
2022/10/23 13:11:55;;;;;;;5.95;2.15;;;;;;;;;;5009948;28;20029;-75
2022/10/23 13:14:32;;;;;;;6.80;2.50;;;;;;;;;;5010319;28;20022;-76
2022/10/23 13:17:00;;;;;;;4.30;2.10;;;;;;;;;;5009585;28;20049;-76
2022/10/23 13:19:26;;;;;;;5.30;2.25;;;;;;;;;;5011496;28;20026;-75
2022/10/23 13:21:52;;;;;;;6.22;3.00;;;;;;;;;;4994135;28;20030;-75
2022/10/23 13:24:20;;;;;;;7.97;2.20;;;;;;;;;;5008178;28;20038;-76
2022/10/23 13:26:46;;;;;;;7.70;3.70;;;;;;;;;;5004153;28;20101;-76
2022/10/23 13:29:20;;;;;;;6.10;2.20;;;;;;;;;;4998713;28;20427;-75
2022/10/23 13:31:46;;;;;;;9.68;2.20;;;;;;;;;;4991484;28;20548;-76
2022/10/23 13:34:18;;;;;;;8.32;1.90;;;;;;;;;;4991576;28;20026;-76
2022/10/23 13:36:44;;;;;;;;;;;;;;;;;;4992159;28;20029;-75
2022/10/23 13:39:10;;;;;;;5.95;1.83;;;;;;;;;;4991449;28;19906;-76
2022/10/23 13:41:36;;;;;;;7.40;2.10;;;;;;;;;;4994772;28;20437;-76
2022/10/23 13:44:02;;;;;;;6.80;2.35;;;;;;;;;;4994292;28;20033;-76
2022/10/23 13:46:28;;;;;;;5.57;1.90;;;;;;;;;;5002232;28;20121;-76
2022/10/23 13:48:54;;;;;;;11.18;2.30;;;;;;;;;;4992563;28;20041;-76
2022/10/23 13:51:22;;;;;;;7.28;1.90;;;;;;;;;;4996633;28;20023;-75
2022/10/23 13:53:48;;;;;;;3.30;1.67;;;;;;;;;;5007439;28;20034;-76
2022/10/23 13:56:15;;;;;;;6.32;1.92;;;;;;;;;;5005281;28;20037;-76
2022/10/23 13:58:42;;;;;;;6.70;1.70;;;;;;;;;;5001668;28;20022;-76
2022/10/23 14:01:15;;;;;;;4.70;2.00;;;;;;;;;;5001762;28;20040;-76
2022/10/23 14:03:42;;;;;;;5.40;1.92;;;;;;;;;;4996559;28;20045;-75
2022/10/23 14:06:08;;;;;;;10.30;2.10;;;;;;;;;;4997140;28;20069;-76
2022/10/23 14:08:34;;;;;;;8.32;2.13;;;;;;;;;;5004601;28;20026;-76
2022/10/23 14:11:00;;;;;;;7.43;2.10;;;;;;;;;;4999776;28;20107;-76
2022/10/23 14:13:26;;;;;;;5.07;1.95;;;;;;;;;;4996389;28;20376;-76
2022/10/23 14:15:52;;;;;;;10.13;2.53;;;;;;;;;;4999233;28;20030;-76
2022/10/23 14:18:19;;;;;;;7.40;1.73;;;;;;;;;;4997889;28;20172;-74
2022/10/23 14:20:45;;;;;;;4.13;1.80;;;;;;;;;;5001540;28;20026;-75
2022/10/23 14:23:11;;;;;;;9.48;2.58;;;;;;;;;;5003483;28;20449;-75
2022/10/23 14:25:37;;;;;;;5.18;1.95;;;;;;;;;;5006083;28;20485;-74
2022/10/23 14:28:03;;;;;;;5.45;2.10;;;;;;;;;;5001620;28;20026;-75
2022/10/23 14:30:29;;;;;;;7.55;2.25;;;;;;;;;;5001577;28;20105;-75
2022/10/23 14:32:55;;;;;;;4.40;1.67;;;;;;;;;;5007496;28;20030;-74
2022/10/23 14:35:22;;;;;;;9.30;1.88;;;;;;;;;;5005356;28;20033;-74
2022/10/23 14:37:48;;;;;;;11.55;2.38;;;;;;;;;;4987525;28;20053;-74
2022/10/23 14:40:14;;;;;;;7.80;2.05;;;;;;;;;;5001223;28;20042;-74
2022/10/23 14:42:40;;;;;;;4.72;1.70;;;;;;;;;;5003625;28;20485;-74
2022/10/23 14:45:06;;;;;;;6.07;2.00;;;;;;;;;;5003562;28;20034;-74